createdAt,value
2022-12-12T00:02:27.165Z,65.92
2022-12-12T00:05:01.455Z,65.68
2022-12-12T00:07:30.896Z,65.71
2022-12-12T00:10:00.679Z,66.19
2022-12-12T00:12:30.211Z,66.13
2022-12-12T00:14:59.654Z,66.07
2022-12-12T00:17:29.139Z,65.92
2022-12-12T00:20:01.192Z,65.96
2022-12-12T00:22:30.677Z,66.05
2022-12-12T00:25:00.145Z,65.81
2022-12-12T00:27:29.658Z,65.93
2022-12-12T00:29:59.145Z,65.48
2022-12-12T00:32:28.735Z,65.91
2022-12-12T00:35:00.779Z,65.76
2022-12-12T00:37:30.288Z,66.05
2022-12-12T00:39:59.753Z,66.40
2022-12-12T00:42:29.212Z,65.88
2022-12-12T00:44:58.787Z,65.73
2022-12-12T00:47:28.301Z,66.53
2022-12-12T00:49:57.792Z,68.57
2022-12-12T00:52:29.830Z,70.65
2022-12-12T00:55:20.123Z,71.68
2022-12-12T00:57:49.595Z,72.47
2022-12-12T01:00:20.064Z,72.76
2022-12-12T01:02:49.728Z,72.05
2022-12-12T01:05:19.363Z,72.57
2022-12-12T01:07:51.490Z,73.21
2022-12-12T01:10:21.032Z,71.76
2022-12-12T01:12:50.839Z,70.25
2022-12-12T01:15:20.524Z,69.44
2022-12-12T01:17:50.001Z,68.81
2022-12-12T01:20:21.099Z,68.75
2022-12-12T01:22:52.961Z,68.13
2022-12-12T01:25:22.752Z,68.17
2022-12-12T01:27:52.281Z,67.83
2022-12-12T01:30:23.166Z,68.37
2022-12-12T01:32:52.896Z,68.68
2022-12-12T01:35:22.370Z,68.02
2022-12-12T01:37:54.920Z,68.21
2022-12-12T01:40:26.213Z,67.77
2022-12-12T01:42:55.786Z,67.80
2022-12-12T01:45:55.330Z,67.79
2022-12-12T01:48:25.793Z,67.22
2022-12-12T01:50:55.237Z,66.90
2022-12-12T01:53:27.432Z,67.20
2022-12-12T01:55:57.010Z,67.36
2022-12-12T01:58:26.517Z,67.07
2022-12-12T02:00:56.059Z,66.97
2022-12-12T02:03:25.602Z,67.08
2022-12-12T02:05:56.373Z,67.50
2022-12-12T02:08:28.527Z,67.61
2022-12-12T02:10:58.045Z,67.64
2022-12-12T02:13:28.913Z,67.42
2022-12-12T02:16:02.864Z,66.72
2022-12-12T02:18:34.382Z,66.49
2022-12-12T02:21:08.497Z,66.42
2022-12-12T02:24:07.964Z,66.57
2022-12-12T02:27:05.424Z,66.70
2022-12-12T02:30:14.150Z,67.04
2022-12-12T02:33:01.607Z,67.17
2022-12-12T02:35:35.456Z,67.79
2022-12-12T02:38:09.232Z,67.29
2022-12-12T02:40:41.373Z,66.91
2022-12-12T02:43:14.139Z,66.87
2022-12-12T02:45:45.106Z,66.83
2022-12-12T02:48:19.661Z,67.16
2022-12-12T02:50:50.279Z,66.79
2022-12-12T02:53:20.716Z,66.94
2022-12-12T02:55:50.286Z,67.14
2022-12-12T02:58:19.846Z,67.05
2022-12-12T03:00:53.372Z,67.23
2022-12-12T03:03:44.733Z,66.95
2022-12-12T03:06:39.358Z,67.16
2022-12-12T03:09:13.797Z,67.31
2022-12-12T03:11:48.440Z,67.41
2022-12-12T03:14:20.295Z,67.25
2022-12-12T03:16:51.629Z,67.19
2022-12-12T03:19:26.244Z,67.20
2022-12-12T03:21:56.918Z,66.78
2022-12-12T03:24:27.815Z,67.03
2022-12-12T03:26:59.069Z,67.18
2022-12-12T03:29:30.101Z,67.62
2022-12-12T03:32:01.183Z,68.03
2022-12-12T03:34:34.280Z,67.79
2022-12-12T03:37:06.154Z,67.82
2022-12-12T03:39:37.013Z,67.28
2022-12-12T03:42:08.800Z,67.37
2022-12-12T03:44:41.618Z,67.56
2022-12-12T03:47:13.409Z,67.61
2022-12-12T03:49:47.181Z,67.45
2022-12-12T03:52:19.218Z,67.58
2022-12-12T03:54:50.149Z,67.41
2022-12-12T03:57:21.686Z,67.61
2022-12-12T03:59:53.386Z,67.40
2022-12-12T04:02:24.724Z,67.48
2022-12-12T04:04:59.237Z,67.62
2022-12-12T04:07:31.826Z,67.74
2022-12-12T04:10:13.783Z,67.71
2022-12-12T04:12:57.151Z,67.77
2022-12-12T04:15:47.288Z,67.87
2022-12-12T04:18:19.502Z,67.64
2022-12-12T04:21:07.796Z,67.42
2022-12-12T04:23:38.859Z,67.53
2022-12-12T04:26:22.701Z,67.54
2022-12-12T04:28:57.115Z,67.69
2022-12-12T04:31:28.000Z,67.34
2022-12-12T04:33:59.598Z,67.64
2022-12-12T04:36:31.998Z,67.81
2022-12-12T04:39:01.489Z,67.52
2022-12-12T04:41:30.989Z,67.59
2022-12-12T04:44:00.486Z,67.36
2022-12-12T04:46:30.622Z,67.17
2022-12-12T04:49:01.714Z,67.21
2022-12-12T04:51:34.141Z,66.80
2022-12-12T04:54:06.110Z,66.92
2022-12-12T04:56:35.677Z,66.93
2022-12-12T04:59:05.268Z,66.90
2022-12-12T05:01:37.834Z,67.01
2022-12-12T05:04:10.547Z,67.41
2022-12-12T05:06:45.697Z,67.22
2022-12-12T05:09:15.229Z,67.49
2022-12-12T05:11:44.888Z,67.17
2022-12-12T05:14:15.481Z,67.09
2022-12-12T05:16:46.622Z,66.87
2022-12-12T05:19:16.156Z,67.57
2022-12-12T05:21:49.196Z,67.23
2022-12-12T05:24:18.683Z,67.07
2022-12-12T05:26:48.245Z,67.26
2022-12-12T05:29:17.753Z,67.07
2022-12-12T05:31:47.261Z,67.30
2022-12-12T05:34:16.807Z,67.36
2022-12-12T05:36:48.945Z,67.26
2022-12-12T05:39:18.698Z,66.75
2022-12-12T05:41:48.227Z,66.80
2022-12-12T05:44:17.718Z,66.89
2022-12-12T05:46:47.233Z,66.76
2022-12-12T05:49:16.715Z,67.15
2022-12-12T05:51:48.849Z,67.07
2022-12-12T05:54:18.379Z,67.10
2022-12-12T05:56:47.872Z,67.04
2022-12-12T05:59:17.353Z,66.90
2022-12-12T06:01:46.871Z,67.34
2022-12-12T06:04:16.389Z,67.65
2022-12-12T06:06:48.579Z,68.16
2022-12-12T06:09:18.134Z,67.84
2022-12-12T06:11:47.619Z,68.07
2022-12-12T06:14:17.140Z,68.37
2022-12-12T06:16:46.631Z,67.64
2022-12-12T06:19:16.161Z,67.69
2022-12-12T06:21:48.477Z,67.62
2022-12-12T06:24:17.931Z,67.29
2022-12-12T06:26:47.383Z,66.96
2022-12-12T06:29:17.243Z,67.20
2022-12-12T06:31:46.781Z,67.04
2022-12-12T06:34:16.233Z,66.65
2022-12-12T06:36:48.621Z,66.97
2022-12-12T06:39:18.073Z,67.06
2022-12-12T06:41:47.598Z,67.29
2022-12-12T06:44:17.097Z,67.15
2022-12-12T06:46:46.635Z,67.41
2022-12-12T06:49:16.207Z,67.84
2022-12-12T06:51:48.893Z,67.52
2022-12-12T06:54:19.406Z,67.47
2022-12-12T06:56:49.506Z,67.82
2022-12-12T06:59:19.104Z,67.83
2022-12-12T07:01:48.643Z,68.22
2022-12-12T07:04:18.202Z,68.38
2022-12-12T07:06:50.251Z,68.44
2022-12-12T07:09:20.550Z,68.64
2022-12-12T07:11:50.060Z,68.73
2022-12-12T07:14:19.574Z,68.65
2022-12-12T07:16:49.023Z,68.44
2022-12-12T07:19:18.522Z,68.31
2022-12-12T07:21:50.640Z,67.79
2022-12-12T07:24:20.134Z,67.19
2022-12-12T07:26:49.668Z,67.80
2022-12-12T07:29:19.138Z,68.00
2022-12-12T07:31:48.578Z,68.19
2022-12-12T07:34:18.093Z,67.90
2022-12-12T07:36:50.190Z,67.95
2022-12-12T07:39:21.207Z,68.16
2022-12-12T07:41:50.530Z,67.83
2022-12-12T07:44:19.996Z,67.89
2022-12-12T07:46:49.475Z,67.52
2022-12-12T07:49:19.011Z,67.85
2022-12-12T07:51:51.082Z,67.77
2022-12-12T07:54:20.670Z,67.29
2022-12-12T07:56:50.154Z,66.57
2022-12-12T07:59:19.772Z,66.42
2022-12-12T08:01:49.276Z,66.37
2022-12-12T08:04:19.087Z,66.46
2022-12-12T08:06:55.767Z,66.61
2022-12-12T08:09:29.199Z,66.27
2022-12-12T08:12:01.581Z,66.53
2022-12-12T08:14:31.095Z,66.62
2022-12-12T08:17:00.603Z,66.40
2022-12-12T08:19:30.103Z,66.80
2022-12-12T08:22:02.425Z,66.96
2022-12-12T08:24:31.907Z,66.80
2022-12-12T08:27:01.368Z,66.65
2022-12-12T08:29:30.851Z,66.14
2022-12-12T08:32:00.369Z,66.32
2022-12-12T08:34:29.858Z,65.89
2022-12-12T08:37:01.920Z,67.35
2022-12-12T08:39:31.444Z,67.82
2022-12-12T08:42:01.393Z,67.42
2022-12-12T08:44:30.919Z,66.69
2022-12-12T08:47:00.550Z,65.69
2022-12-12T08:49:30.043Z,65.27
2022-12-12T08:52:05.959Z,65.29
2022-12-12T08:54:35.645Z,65.79
2022-12-12T08:57:05.307Z,65.06
2022-12-12T08:59:34.952Z,64.87
2022-12-12T09:02:04.598Z,64.95
2022-12-12T09:04:34.165Z,64.51
2022-12-12T09:07:08.628Z,64.87
2022-12-12T09:09:38.413Z,65.79
2022-12-12T09:12:08.527Z,66.39
2022-12-12T09:14:38.140Z,65.90
2022-12-12T09:17:07.617Z,64.91
2022-12-12T09:19:37.341Z,64.44
2022-12-12T09:22:09.459Z,63.66
2022-12-12T09:24:38.931Z,63.54
2022-12-12T09:27:08.770Z,63.92
2022-12-12T09:29:38.314Z,63.34
2022-12-12T09:32:08.032Z,62.88
2022-12-12T09:34:37.549Z,62.79
2022-12-12T09:37:09.605Z,62.42
2022-12-12T09:39:39.040Z,62.38
2022-12-12T09:42:13.494Z,63.08
2022-12-12T09:44:43.140Z,62.86
2022-12-12T09:47:15.602Z,62.08
2022-12-12T09:49:48.369Z,62.06
2022-12-12T09:52:25.171Z,62.61
2022-12-12T09:54:57.195Z,63.44
2022-12-12T09:57:28.929Z,63.03
2022-12-12T10:00:00.177Z,62.79
2022-12-12T10:02:43.448Z,63.96
2022-12-12T10:05:21.642Z,64.03
2022-12-12T10:07:57.146Z,63.94
2022-12-12T10:10:28.436Z,64.32
2022-12-12T10:12:58.304Z,64.37
2022-12-12T10:15:32.307Z,63.94
2022-12-12T10:18:02.596Z,62.68
2022-12-12T10:20:33.184Z,61.98
2022-12-12T10:23:08.268Z,62.00
2022-12-12T10:25:42.633Z,61.59
2022-12-12T10:28:13.621Z,61.19
2022-12-12T10:30:59.960Z,60.58
2022-12-12T10:33:33.941Z,59.49
2022-12-12T10:36:07.296Z,60.07
2022-12-12T10:38:51.386Z,59.44
2022-12-12T10:41:23.495Z,59.92
2022-12-12T10:43:58.187Z,59.60
2022-12-12T10:46:28.654Z,59.42
2022-12-12T10:48:58.222Z,59.26
2022-12-12T10:51:27.826Z,58.85
2022-12-12T10:53:59.862Z,59.33
2022-12-12T10:56:30.062Z,60.72
2022-12-12T10:59:00.187Z,61.52
2022-12-12T11:02:00.429Z,61.95
2022-12-12T11:04:27.322Z,60.27
2022-12-12T11:06:57.998Z,58.54
2022-12-12T11:09:30.757Z,58.91
2022-12-12T11:12:00.843Z,59.56
2022-12-12T11:14:35.733Z,59.59
2022-12-12T11:17:05.297Z,59.02
2022-12-12T11:19:39.863Z,57.83
2022-12-12T11:22:09.355Z,57.53
2022-12-12T11:24:41.360Z,57.75
2022-12-12T11:27:10.803Z,58.11
2022-12-12T11:29:46.264Z,58.16
2022-12-12T11:32:16.359Z,57.93
2022-12-12T11:34:47.436Z,58.54
2022-12-12T11:37:17.512Z,57.21
2022-12-12T11:39:51.937Z,57.90
2022-12-12T11:42:25.586Z,57.76
2022-12-12T11:45:03.365Z,58.56
2022-12-12T11:47:38.581Z,57.97
2022-12-12T11:50:19.802Z,57.20
2022-12-12T11:52:49.038Z,57.73
2022-12-12T11:55:21.254Z,58.86
2022-12-12T11:58:03.278Z,57.64
2022-12-12T12:00:34.313Z,56.95
2022-12-12T12:03:18.661Z,56.33
2022-12-12T12:05:50.063Z,57.00
2022-12-12T12:08:22.619Z,56.18
2022-12-12T12:10:58.154Z,56.40
2022-12-12T12:13:32.690Z,55.71
2022-12-12T12:16:03.421Z,55.35
2022-12-12T12:18:38.587Z,55.79
2022-12-12T12:21:13.729Z,57.99
2022-12-12T12:23:50.084Z,58.18
2022-12-12T12:26:25.142Z,59.19
2022-12-12T12:29:04.995Z,58.37
2022-12-12T12:31:35.300Z,57.17
2022-12-12T12:34:07.468Z,57.03
2022-12-12T12:36:38.315Z,56.94
2022-12-12T12:39:10.734Z,55.72
2022-12-12T12:41:46.134Z,57.44
2022-12-12T12:44:27.263Z,56.41
2022-12-12T12:46:59.066Z,56.11
2022-12-12T12:49:29.159Z,55.40
2022-12-12T12:51:59.359Z,56.34
2022-12-12T12:54:29.976Z,56.81
2022-12-12T12:57:02.727Z,56.80
2022-12-12T12:59:32.822Z,55.82
2022-12-12T13:02:02.651Z,57.27
2022-12-12T13:04:32.052Z,58.69
2022-12-12T13:07:01.693Z,59.07
2022-12-12T13:09:32.827Z,58.65
2022-12-12T13:12:06.160Z,59.01
2022-12-12T13:14:42.932Z,56.76
2022-12-12T13:17:15.305Z,57.34
2022-12-12T13:19:45.327Z,58.42
2022-12-12T13:22:16.681Z,58.49
2022-12-12T13:24:47.308Z,57.80
2022-12-12T13:27:21.403Z,57.68
2022-12-12T13:29:51.045Z,58.02
2022-12-12T13:32:28.002Z,58.03
2022-12-12T13:34:57.845Z,57.26
2022-12-12T13:37:27.084Z,55.37
2022-12-12T13:40:00.495Z,58.18
2022-12-12T13:42:32.305Z,58.88
2022-12-12T13:45:01.624Z,59.47
2022-12-12T13:47:45.942Z,59.58
2022-12-12T13:50:22.614Z,58.39
2022-12-12T13:53:06.675Z,57.95
2022-12-12T13:55:35.899Z,57.10
2022-12-12T13:58:20.192Z,58.10
2022-12-12T14:00:52.312Z,57.72
2022-12-12T14:03:29.983Z,58.26
2022-12-12T14:06:09.603Z,57.74
2022-12-12T14:08:39.488Z,59.13
2022-12-12T14:11:11.925Z,60.79
2022-12-12T14:13:45.380Z,61.66
2022-12-12T14:16:24.374Z,61.39
2022-12-12T14:19:01.955Z,60.77
2022-12-12T14:21:41.257Z,59.71
2022-12-12T14:24:25.642Z,60.30
2022-12-12T14:26:54.848Z,61.71
2022-12-12T14:29:25.564Z,62.60
2022-12-12T14:32:00.195Z,63.05
2022-12-12T14:34:30.043Z,62.99
2022-12-12T14:37:14.320Z,62.38
2022-12-12T14:39:49.009Z,62.17
2022-12-12T14:42:21.191Z,61.32
2022-12-12T14:44:51.090Z,62.04
2022-12-12T14:47:23.000Z,61.56
2022-12-12T14:49:52.308Z,60.77
2022-12-12T14:52:22.484Z,60.65
2022-12-12T14:54:51.687Z,61.16
2022-12-12T14:57:21.755Z,60.99
2022-12-12T14:59:51.058Z,59.58
2022-12-12T15:02:24.566Z,59.68
2022-12-12T15:04:55.956Z,60.33
2022-12-12T15:07:27.717Z,60.03
2022-12-12T15:09:56.976Z,59.39
2022-12-12T15:12:26.950Z,59.47
2022-12-12T15:14:57.275Z,59.99
2022-12-12T15:17:29.988Z,59.72
2022-12-12T15:19:59.903Z,59.76
2022-12-12T15:22:29.666Z,59.54
2022-12-12T15:24:59.291Z,59.70
2022-12-12T15:27:30.058Z,59.67
2022-12-12T15:29:59.353Z,59.75
2022-12-12T15:32:31.242Z,60.21
2022-12-12T15:35:04.883Z,60.51
2022-12-12T15:37:34.368Z,60.45
2022-12-12T15:40:27.376Z,60.47
2022-12-12T15:42:57.247Z,60.30
2022-12-12T15:45:27.615Z,60.15
2022-12-12T15:47:59.601Z,60.00
2022-12-12T15:50:29.961Z,60.45
2022-12-12T15:53:03.006Z,60.95
2022-12-12T15:55:32.183Z,60.74
2022-12-12T15:58:01.473Z,60.43
2022-12-12T16:00:35.169Z,60.15
2022-12-12T16:03:08.019Z,59.94
2022-12-12T16:05:38.207Z,60.19
2022-12-12T16:08:24.133Z,60.26
2022-12-12T16:10:58.111Z,60.83
2022-12-12T16:13:27.744Z,60.25
2022-12-12T16:15:56.974Z,60.54
2022-12-12T16:18:28.888Z,60.75
2022-12-12T16:20:58.331Z,60.77
2022-12-12T16:23:30.035Z,60.83
2022-12-12T16:25:59.308Z,60.70
2022-12-12T16:28:28.777Z,60.42
2022-12-12T16:30:58.446Z,61.15
2022-12-12T16:33:31.618Z,61.30
2022-12-12T16:36:01.342Z,60.98
2022-12-12T16:38:30.985Z,60.54
2022-12-12T16:41:01.019Z,60.59
2022-12-12T16:43:30.226Z,60.62
2022-12-12T16:45:59.559Z,60.35
2022-12-12T16:48:35.461Z,60.14
2022-12-12T16:51:05.349Z,60.42
2022-12-12T16:53:34.620Z,60.46
2022-12-12T16:56:03.806Z,60.42
2022-12-12T16:58:33.038Z,60.62
2022-12-12T17:01:02.860Z,60.76
2022-12-12T17:03:35.158Z,61.16
2022-12-12T17:06:04.443Z,60.87
2022-12-12T17:08:33.824Z,61.30
2022-12-12T17:11:09.939Z,61.13
2022-12-12T17:13:39.951Z,61.09
2022-12-12T17:16:09.377Z,61.31
2022-12-12T17:18:41.485Z,61.43
2022-12-12T17:21:10.699Z,61.46
2022-12-12T17:23:39.897Z,61.50
2022-12-12T17:26:09.126Z,61.53
2022-12-12T17:28:38.545Z,61.50
2022-12-12T17:31:09.854Z,61.57
2022-12-12T17:33:49.917Z,61.85
2022-12-12T17:36:19.777Z,61.81
2022-12-12T17:38:49.599Z,61.96
2022-12-12T17:41:18.798Z,62.31
2022-12-12T17:43:53.634Z,62.67
2022-12-12T17:46:25.113Z,63.16
2022-12-12T17:48:56.925Z,63.35
2022-12-12T17:51:26.425Z,63.65
2022-12-12T17:53:55.649Z,63.67
2022-12-12T17:56:25.531Z,63.21
2022-12-12T17:58:54.769Z,62.97
2022-12-12T18:01:24.581Z,63.09
2022-12-12T18:03:53.864Z,63.04
2022-12-12T18:06:25.820Z,63.15
2022-12-12T18:08:55.059Z,62.97
2022-12-12T18:11:26.800Z,63.00
2022-12-12T18:13:57.826Z,62.92
2022-12-12T18:16:27.314Z,62.84
2022-12-12T18:18:56.568Z,63.22
2022-12-12T18:21:59.179Z,63.43
2022-12-12T18:24:19.223Z,63.45
2022-12-12T18:26:48.423Z,63.58
2022-12-12T18:29:17.607Z,63.70
2022-12-12T18:31:46.942Z,63.68
2022-12-12T18:34:16.306Z,64.05
2022-12-12T18:36:49.354Z,63.86
2022-12-12T18:39:18.683Z,63.71
2022-12-12T18:41:47.887Z,63.75
2022-12-12T18:44:17.316Z,64.06
2022-12-12T18:46:46.522Z,63.97
2022-12-12T18:49:18.268Z,64.04
2022-12-12T18:51:50.064Z,64.08
2022-12-12T18:54:19.313Z,64.06
2022-12-12T18:56:48.589Z,63.87
2022-12-12T18:59:18.116Z,63.66
2022-12-12T19:01:48.147Z,63.57
2022-12-12T19:04:22.944Z,64.16
2022-12-12T19:06:55.254Z,64.13
2022-12-12T19:09:24.449Z,64.04
2022-12-12T19:12:01.672Z,64.12
2022-12-12T19:17:25.633Z,64.20
2022-12-12T19:19:55.432Z,64.26
2022-12-12T19:25:16.571Z,64.27
2022-12-12T19:27:45.768Z,63.98
2022-12-12T19:30:15.949Z,64.26
2022-12-12T19:32:48.949Z,64.88
2022-12-12T19:35:18.677Z,64.37
2022-12-12T19:37:50.457Z,63.78
2022-12-12T19:40:19.739Z,64.20
2022-12-12T19:42:49.110Z,64.60
2022-12-12T19:45:18.488Z,64.24
2022-12-12T19:47:47.700Z,64.18
2022-12-12T19:50:17.207Z,64.10
2022-12-12T19:52:46.761Z,64.55
2022-12-12T19:55:18.591Z,64.48
2022-12-12T19:57:47.807Z,64.85
2022-12-12T20:00:19.886Z,64.19
2022-12-12T20:02:49.112Z,64.74
2022-12-12T20:05:18.360Z,63.81
2022-12-12T20:07:47.636Z,63.40
2022-12-12T20:10:19.577Z,63.66
2022-12-12T20:12:56.337Z,63.53
2022-12-12T20:15:27.796Z,63.43
2022-12-12T20:18:00.198Z,63.71
2022-12-12T20:20:29.511Z,63.73
2022-12-12T20:22:58.971Z,64.01
2022-12-12T20:25:30.775Z,63.98
2022-12-12T20:28:00.027Z,64.11
2022-12-12T20:30:30.200Z,64.91
2022-12-12T20:32:59.688Z,65.08
2022-12-12T20:35:29.165Z,64.95
2022-12-12T20:37:58.384Z,65.41
2022-12-12T20:40:27.553Z,66.11
2022-12-12T20:43:03.352Z,65.44
2022-12-12T20:45:32.973Z,65.24
2022-12-12T20:48:07.384Z,65.48
2022-12-12T20:50:37.025Z,66.42
2022-12-12T20:53:06.256Z,66.45
2022-12-12T20:55:37.048Z,66.89
2022-12-12T20:58:08.869Z,67.39
2022-12-12T21:00:38.278Z,68.01
2022-12-12T21:03:07.537Z,67.85
2022-12-12T21:05:36.826Z,67.18
2022-12-12T21:08:06.272Z,67.96
2022-12-12T21:10:35.986Z,68.20
2022-12-12T21:13:05.235Z,67.71
2022-12-12T21:15:37.093Z,68.19
2022-12-12T21:18:06.613Z,67.60
2022-12-12T21:20:35.827Z,66.77
2022-12-12T21:23:05.039Z,65.93
2022-12-12T21:25:34.238Z,65.72
2022-12-12T21:28:03.524Z,65.77
2022-12-12T21:30:32.695Z,65.50
2022-12-12T21:33:04.686Z,65.26
2022-12-12T21:35:33.894Z,65.24
2022-12-12T21:38:03.361Z,65.17
2022-12-12T21:42:33.645Z,65.39
2022-12-12T21:45:03.075Z,65.42
2022-12-12T21:47:32.507Z,65.89
2022-12-12T21:50:01.914Z,65.94
2022-12-12T21:52:31.393Z,65.74
2022-12-12T21:55:00.831Z,65.74
2022-12-12T21:57:33.004Z,66.12
2022-12-12T22:00:02.445Z,66.13
2022-12-12T22:02:31.998Z,66.52
2022-12-12T22:05:01.558Z,66.58
2022-12-12T22:07:31.044Z,66.67
2022-12-12T22:10:11.255Z,66.32
2022-12-12T22:12:43.678Z,66.27
2022-12-12T22:15:27.319Z,66.45
2022-12-12T22:17:56.770Z,66.55
2022-12-12T22:20:26.208Z,66.61
2022-12-12T22:22:56.139Z,66.20
2022-12-12T22:25:25.673Z,65.89
2022-12-12T22:27:57.725Z,65.69
2022-12-12T22:30:27.190Z,65.60
2022-12-12T22:32:56.622Z,65.09
2022-12-12T22:35:26.683Z,65.40
2022-12-12T22:37:56.578Z,65.17
2022-12-12T22:40:26.072Z,65.54
2022-12-12T22:42:58.132Z,65.46
2022-12-12T22:45:27.646Z,65.35
2022-12-12T22:47:57.087Z,65.66
2022-12-12T22:50:26.562Z,65.29
2022-12-12T22:52:56.030Z,65.71
2022-12-12T22:55:26.259Z,65.68
2022-12-12T22:57:58.297Z,65.55
2022-12-12T23:00:27.754Z,66.02
2022-12-12T23:02:57.424Z,66.11
2022-12-12T23:05:26.925Z,66.15
2022-12-12T23:07:56.400Z,66.08
2022-12-12T23:10:25.991Z,66.31
2022-12-12T23:12:58.093Z,65.90
2022-12-12T23:15:27.553Z,65.88
2022-12-12T23:17:57.044Z,65.50
2022-12-12T23:20:26.525Z,64.99
2022-12-12T23:22:56.123Z,64.48
2022-12-12T23:25:25.639Z,64.09
2022-12-12T23:27:57.691Z,63.78
2022-12-12T23:30:27.156Z,63.47
2022-12-12T23:32:56.663Z,63.33
2022-12-12T23:35:26.249Z,64.22
2022-12-12T23:37:55.696Z,63.94
2022-12-12T23:40:25.173Z,63.47
2022-12-12T23:42:54.669Z,63.92
2022-12-12T23:45:26.809Z,64.42
2022-12-12T23:47:56.323Z,64.33
2022-12-12T23:50:25.781Z,63.98
2022-12-12T23:52:55.259Z,64.05
2022-12-12T23:55:24.710Z,63.46
2022-12-12T23:57:54.190Z,63.62
